sensor_id;sensor_type;location;lat;lon;timestamp;temperature;humidity
68912;SHT31;55953;51.650;-0.522;2022-11-20T00:01:32;5.69;84.76
68912;SHT31;55953;51.650;-0.522;2022-11-20T00:04:00;5.68;84.94
68912;SHT31;55953;51.650;-0.522;2022-11-20T00:06:29;5.75;84.87
68912;SHT31;55953;51.650;-0.522;2022-11-20T00:08:58;5.69;84.84
68912;SHT31;55953;51.650;-0.522;2022-11-20T00:11:29;5.67;84.99
68912;SHT31;55953;51.650;-0.522;2022-11-20T00:14:00;5.61;85.17
68912;SHT31;55953;51.650;-0.522;2022-11-20T00:16:30;5.65;85.24
68912;SHT31;55953;51.650;-0.522;2022-11-20T00:19:00;5.55;85.19
68912;SHT31;55953;51.650;-0.522;2022-11-20T00:21:28;5.50;85.47
68912;SHT31;55953;51.650;-0.522;2022-11-20T00:23:57;5.63;85.50
68912;SHT31;55953;51.650;-0.522;2022-11-20T00:26:26;5.64;85.11
68912;SHT31;55953;51.650;-0.522;2022-11-20T00:28:59;5.63;85.35
68912;SHT31;55953;51.650;-0.522;2022-11-20T00:31:29;5.69;85.37
68912;SHT31;55953;51.650;-0.522;2022-11-20T00:33:57;5.78;85.36
68912;SHT31;55953;51.650;-0.522;2022-11-20T00:36:26;5.89;85.04
68912;SHT31;55953;51.650;-0.522;2022-11-20T00:38:56;5.88;84.99
68912;SHT31;55953;51.650;-0.522;2022-11-20T00:41:26;5.87;85.17
68912;SHT31;55953;51.650;-0.522;2022-11-20T00:43:56;5.90;85.31
68912;SHT31;55953;51.650;-0.522;2022-11-20T00:46:25;5.98;85.43
68912;SHT31;55953;51.650;-0.522;2022-11-20T00:48:55;6.03;85.38
68912;SHT31;55953;51.650;-0.522;2022-11-20T00:51:24;6.06;85.43
68912;SHT31;55953;51.650;-0.522;2022-11-20T00:53:54;6.09;85.38
68912;SHT31;55953;51.650;-0.522;2022-11-20T00:56:24;6.08;85.50
68912;SHT31;55953;51.650;-0.522;2022-11-20T00:58:53;6.11;85.63
68912;SHT31;55953;51.650;-0.522;2022-11-20T01:01:22;6.14;85.61
68912;SHT31;55953;51.650;-0.522;2022-11-20T01:03:54;6.18;85.65
68912;SHT31;55953;51.650;-0.522;2022-11-20T01:06:28;6.21;85.60
68912;SHT31;55953;51.650;-0.522;2022-11-20T01:09:05;6.22;85.69
68912;SHT31;55953;51.650;-0.522;2022-11-20T01:11:40;6.26;85.84
68912;SHT31;55953;51.650;-0.522;2022-11-20T01:14:16;6.35;85.67
68912;SHT31;55953;51.650;-0.522;2022-11-20T01:16:47;6.42;85.63
68912;SHT31;55953;51.650;-0.522;2022-11-20T01:19:19;6.50;85.52
68912;SHT31;55953;51.650;-0.522;2022-11-20T01:21:51;6.59;85.27
68912;SHT31;55953;51.650;-0.522;2022-11-20T01:24:22;6.63;85.24
68912;SHT31;55953;51.650;-0.522;2022-11-20T01:26:50;6.69;85.11
68912;SHT31;55953;51.650;-0.522;2022-11-20T01:29:20;6.69;85.07
68912;SHT31;55953;51.650;-0.522;2022-11-20T01:31:51;6.70;85.04
68912;SHT31;55953;51.650;-0.522;2022-11-20T01:34:20;6.69;85.11
68912;SHT31;55953;51.650;-0.522;2022-11-20T01:36:50;6.72;85.02
68912;SHT31;55953;51.650;-0.522;2022-11-20T01:39:21;6.72;85.04
68912;SHT31;55953;51.650;-0.522;2022-11-20T01:41:53;6.68;85.07
68912;SHT31;55953;51.650;-0.522;2022-11-20T01:50:09;6.65;85.39
68912;SHT31;55953;51.650;-0.522;2022-11-20T01:52:54;6.76;85.22
68912;SHT31;55953;51.650;-0.522;2022-11-20T01:55:32;6.82;84.86
68912;SHT31;55953;51.650;-0.522;2022-11-20T01:58:07;6.69;84.93
68912;SHT31;55953;51.650;-0.522;2022-11-20T02:00:35;6.63;85.22
68912;SHT31;55953;51.650;-0.522;2022-11-20T02:03:04;6.70;85.32
68912;SHT31;55953;51.650;-0.522;2022-11-20T02:05:39;6.68;85.03
68912;SHT31;55953;51.650;-0.522;2022-11-20T02:08:31;6.65;85.28
68912;SHT31;55953;51.650;-0.522;2022-11-20T02:11:00;6.66;85.40
68912;SHT31;55953;51.650;-0.522;2022-11-20T02:13:28;6.72;85.44
68912;SHT31;55953;51.650;-0.522;2022-11-20T02:16:19;6.76;85.46
68912;SHT31;55953;51.650;-0.522;2022-11-20T02:18:52;6.81;85.16
68912;SHT31;55953;51.650;-0.522;2022-11-20T02:24:20;6.90;85.14
68912;SHT31;55953;51.650;-0.522;2022-11-20T02:26:59;6.91;85.01
68912;SHT31;55953;51.650;-0.522;2022-11-20T02:29:35;6.87;85.23
68912;SHT31;55953;51.650;-0.522;2022-11-20T02:32:21;6.96;85.43
68912;SHT31;55953;51.650;-0.522;2022-11-20T02:34:53;7.00;85.06
68912;SHT31;55953;51.650;-0.522;2022-11-20T02:37:22;7.03;85.33
68912;SHT31;55953;51.650;-0.522;2022-11-20T02:39:57;7.03;85.17
68912;SHT31;55953;51.650;-0.522;2022-11-20T02:42:25;7.08;85.50
68912;SHT31;55953;51.650;-0.522;2022-11-20T02:44:53;7.13;85.22
68912;SHT31;55953;51.650;-0.522;2022-11-20T02:47:20;7.10;85.03
68912;SHT31;55953;51.650;-0.522;2022-11-20T02:49:48;7.09;85.23
68912;SHT31;55953;51.650;-0.522;2022-11-20T02:52:16;7.04;85.11
68912;SHT31;55953;51.650;-0.522;2022-11-20T02:54:43;7.06;85.49
68912;SHT31;55953;51.650;-0.522;2022-11-20T02:57:11;7.14;85.32
68912;SHT31;55953;51.650;-0.522;2022-11-20T02:59:39;7.10;85.20
68912;SHT31;55953;51.650;-0.522;2022-11-20T03:02:07;7.03;85.36
68912;SHT31;55953;51.650;-0.522;2022-11-20T03:04:34;7.01;85.46
68912;SHT31;55953;51.650;-0.522;2022-11-20T03:07:02;6.96;85.53
68912;SHT31;55953;51.650;-0.522;2022-11-20T03:09:32;6.87;85.70
68912;SHT31;55953;51.650;-0.522;2022-11-20T03:12:00;6.86;85.95
68912;SHT31;55953;51.650;-0.522;2022-11-20T03:14:27;6.98;85.92
68912;SHT31;55953;51.650;-0.522;2022-11-20T03:16:55;6.96;85.71
68912;SHT31;55953;51.650;-0.522;2022-11-20T03:19:23;6.97;85.78
68912;SHT31;55953;51.650;-0.522;2022-11-20T03:21:51;6.94;85.88
68912;SHT31;55953;51.650;-0.522;2022-11-20T03:24:19;6.96;86.04
68912;SHT31;55953;51.650;-0.522;2022-11-20T03:26:46;7.05;86.00
68912;SHT31;55953;51.650;-0.522;2022-11-20T03:29:14;7.19;85.86
68912;SHT31;55953;51.650;-0.522;2022-11-20T03:31:42;7.22;85.45
68912;SHT31;55953;51.650;-0.522;2022-11-20T03:34:10;7.18;85.55
68912;SHT31;55953;51.650;-0.522;2022-11-20T03:36:39;7.13;85.51
68912;SHT31;55953;51.650;-0.522;2022-11-20T03:39:09;7.07;85.69
68912;SHT31;55953;51.650;-0.522;2022-11-20T03:41:38;7.03;85.75
68912;SHT31;55953;51.650;-0.522;2022-11-20T03:44:09;6.97;85.94
68912;SHT31;55953;51.650;-0.522;2022-11-20T03:46:38;6.98;86.08
68912;SHT31;55953;51.650;-0.522;2022-11-20T03:49:06;7.03;86.06
68912;SHT31;55953;51.650;-0.522;2022-11-20T03:51:35;7.08;85.93
68912;SHT31;55953;51.650;-0.522;2022-11-20T03:54:04;7.08;85.96
68912;SHT31;55953;51.650;-0.522;2022-11-20T03:56:37;7.08;85.88
68912;SHT31;55953;51.650;-0.522;2022-11-20T03:59:06;7.13;85.96
68912;SHT31;55953;51.650;-0.522;2022-11-20T04:01:34;7.11;85.73
68912;SHT31;55953;51.650;-0.522;2022-11-20T04:04:05;7.09;85.95
68912;SHT31;55953;51.650;-0.522;2022-11-20T04:06:34;7.08;85.89
68912;SHT31;55953;51.650;-0.522;2022-11-20T04:09:05;7.02;86.03
68912;SHT31;55953;51.650;-0.522;2022-11-20T04:11:34;6.97;86.24
68912;SHT31;55953;51.650;-0.522;2022-11-20T04:14:05;6.92;86.38
68912;SHT31;55953;51.650;-0.522;2022-11-20T04:16:39;6.91;86.47
68912;SHT31;55953;51.650;-0.522;2022-11-20T04:19:11;6.91;86.56
68912;SHT31;55953;51.650;-0.522;2022-11-20T04:21:43;6.93;86.63
68912;SHT31;55953;51.650;-0.522;2022-11-20T04:24:11;6.93;86.62
68912;SHT31;55953;51.650;-0.522;2022-11-20T04:26:39;6.91;86.75
68912;SHT31;55953;51.650;-0.522;2022-11-20T04:29:10;6.87;86.88
68912;SHT31;55953;51.650;-0.522;2022-11-20T04:31:39;6.86;87.00
68912;SHT31;55953;51.650;-0.522;2022-11-20T04:34:06;6.87;87.13
68912;SHT31;55953;51.650;-0.522;2022-11-20T04:36:35;6.89;87.14
68912;SHT31;55953;51.650;-0.522;2022-11-20T04:39:03;6.86;87.29
68912;SHT31;55953;51.650;-0.522;2022-11-20T04:41:34;6.87;87.40
68912;SHT31;55953;51.650;-0.522;2022-11-20T04:44:04;6.85;87.36
68912;SHT31;55953;51.650;-0.522;2022-11-20T04:46:40;6.85;87.56
68912;SHT31;55953;51.650;-0.522;2022-11-20T04:49:10;6.89;87.65
68912;SHT31;55953;51.650;-0.522;2022-11-20T04:51:39;6.92;87.72
68912;SHT31;55953;51.650;-0.522;2022-11-20T04:54:06;6.95;87.76
68912;SHT31;55953;51.650;-0.522;2022-11-20T04:56:35;6.97;87.66
68912;SHT31;55953;51.650;-0.522;2022-11-20T04:59:03;7.01;87.71
68912;SHT31;55953;51.650;-0.522;2022-11-20T05:01:31;7.03;87.63
68912;SHT31;55953;51.650;-0.522;2022-11-20T05:03:59;7.05;87.75
68912;SHT31;55953;51.650;-0.522;2022-11-20T05:06:27;7.09;87.77
68912;SHT31;55953;51.650;-0.522;2022-11-20T05:08:55;7.12;87.77
68912;SHT31;55953;51.650;-0.522;2022-11-20T05:11:23;7.14;87.81
68912;SHT31;55953;51.650;-0.522;2022-11-20T05:13:51;7.12;87.92
68912;SHT31;55953;51.650;-0.522;2022-11-20T05:16:20;7.16;88.00
68912;SHT31;55953;51.650;-0.522;2022-11-20T05:18:52;7.16;87.96
68912;SHT31;55953;51.650;-0.522;2022-11-20T05:21:21;7.18;88.02
68912;SHT31;55953;51.650;-0.522;2022-11-20T05:23:49;7.19;88.01
68912;SHT31;55953;51.650;-0.522;2022-11-20T05:26:18;7.20;88.24
68912;SHT31;55953;51.650;-0.522;2022-11-20T05:28:49;7.23;88.24
68912;SHT31;55953;51.650;-0.522;2022-11-20T05:31:19;7.26;88.25
68912;SHT31;55953;51.650;-0.522;2022-11-20T05:33:55;7.27;88.23
68912;SHT31;55953;51.650;-0.522;2022-11-20T05:36:24;7.31;88.35
68912;SHT31;55953;51.650;-0.522;2022-11-20T05:38:52;7.30;88.40
68912;SHT31;55953;51.650;-0.522;2022-11-20T05:41:27;7.33;88.54
68912;SHT31;55953;51.650;-0.522;2022-11-20T05:43:56;7.34;88.36
68912;SHT31;55953;51.650;-0.522;2022-11-20T05:46:25;7.34;88.51
68912;SHT31;55953;51.650;-0.522;2022-11-20T05:48:56;7.35;88.55
68912;SHT31;55953;51.650;-0.522;2022-11-20T05:51:25;7.41;88.66
68912;SHT31;55953;51.650;-0.522;2022-11-20T05:53:53;7.44;88.63
68912;SHT31;55953;51.650;-0.522;2022-11-20T05:56:23;7.46;88.58
68912;SHT31;55953;51.650;-0.522;2022-11-20T05:58:51;7.54;88.68
68912;SHT31;55953;51.650;-0.522;2022-11-20T06:01:20;7.59;88.60
68912;SHT31;55953;51.650;-0.522;2022-11-20T06:03:52;7.59;88.58
68912;SHT31;55953;51.650;-0.522;2022-11-20T06:06:21;7.56;88.70
68912;SHT31;55953;51.650;-0.522;2022-11-20T06:08:50;7.57;88.72
68912;SHT31;55953;51.650;-0.522;2022-11-20T06:11:17;7.57;88.77
68912;SHT31;55953;51.650;-0.522;2022-11-20T06:13:46;7.60;88.82
68912;SHT31;55953;51.650;-0.522;2022-11-20T06:16:16;7.57;88.88
68912;SHT31;55953;51.650;-0.522;2022-11-20T06:18:47;7.58;89.02
68912;SHT31;55953;51.650;-0.522;2022-11-20T06:21:16;7.53;89.15
68912;SHT31;55953;51.650;-0.522;2022-11-20T06:23:47;7.51;89.26
68912;SHT31;55953;51.650;-0.522;2022-11-20T06:26:18;7.54;89.28
68912;SHT31;55953;51.650;-0.522;2022-11-20T06:28:50;7.58;89.23
68912;SHT31;55953;51.650;-0.522;2022-11-20T06:31:19;7.59;89.22
68912;SHT31;55953;51.650;-0.522;2022-11-20T06:33:50;7.59;89.21
68912;SHT31;55953;51.650;-0.522;2022-11-20T06:36:20;7.56;89.44
68912;SHT31;55953;51.650;-0.522;2022-11-20T06:38:49;7.57;89.42
68912;SHT31;55953;51.650;-0.522;2022-11-20T06:41:18;7.57;89.50
68912;SHT31;55953;51.650;-0.522;2022-11-20T06:43:49;7.61;89.55
68912;SHT31;55953;51.650;-0.522;2022-11-20T06:46:17;7.69;89.54
68912;SHT31;55953;51.650;-0.522;2022-11-20T06:48:47;7.77;89.43
68912;SHT31;55953;51.650;-0.522;2022-11-20T06:51:17;7.71;89.30
68912;SHT31;55953;51.650;-0.522;2022-11-20T06:53:44;7.69;89.19
68912;SHT31;55953;51.650;-0.522;2022-11-20T06:56:12;7.69;89.40
68912;SHT31;55953;51.650;-0.522;2022-11-20T06:58:40;7.67;89.33
68912;SHT31;55953;51.650;-0.522;2022-11-20T07:01:12;7.74;89.50
68912;SHT31;55953;51.650;-0.522;2022-11-20T07:03:42;7.87;89.47
68912;SHT31;55953;51.650;-0.522;2022-11-20T07:06:10;7.93;89.11
68912;SHT31;55953;51.650;-0.522;2022-11-20T07:08:38;7.96;88.85
68912;SHT31;55953;51.650;-0.522;2022-11-20T07:11:06;7.93;88.69
68912;SHT31;55953;51.650;-0.522;2022-11-20T07:13:35;7.93;88.67
68912;SHT31;55953;51.650;-0.522;2022-11-20T07:16:04;7.94;88.84
68912;SHT31;55953;51.650;-0.522;2022-11-20T07:18:35;7.97;88.57
68912;SHT31;55953;51.650;-0.522;2022-11-20T07:21:04;7.94;88.59
68912;SHT31;55953;51.650;-0.522;2022-11-20T07:23:35;7.99;88.63
68912;SHT31;55953;51.650;-0.522;2022-11-20T07:26:04;7.99;88.33
68912;SHT31;55953;51.650;-0.522;2022-11-20T07:28:34;7.95;88.22
68912;SHT31;55953;51.650;-0.522;2022-11-20T07:31:03;7.95;88.35
68912;SHT31;55953;51.650;-0.522;2022-11-20T07:33:32;7.96;88.10
68912;SHT31;55953;51.650;-0.522;2022-11-20T07:36:00;7.89;88.12
68912;SHT31;55953;51.650;-0.522;2022-11-20T07:38:28;7.97;88.31
68912;SHT31;55953;51.650;-0.522;2022-11-20T07:40:57;8.03;87.92
68912;SHT31;55953;51.650;-0.522;2022-11-20T07:43:25;8.02;87.71
68912;SHT31;55953;51.650;-0.522;2022-11-20T07:45:56;7.95;87.60
68912;SHT31;55953;51.650;-0.522;2022-11-20T07:48:25;7.90;87.52
68912;SHT31;55953;51.650;-0.522;2022-11-20T07:50:54;7.78;87.57
68912;SHT31;55953;51.650;-0.522;2022-11-20T07:53:25;7.63;87.94
68912;SHT31;55953;51.650;-0.522;2022-11-20T07:55:53;7.50;88.41
68912;SHT31;55953;51.650;-0.522;2022-11-20T07:58:21;7.47;88.88
68912;SHT31;55953;51.650;-0.522;2022-11-20T08:00:49;7.48;88.83
68912;SHT31;55953;51.650;-0.522;2022-11-20T08:03:17;7.42;88.78
68912;SHT31;55953;51.650;-0.522;2022-11-20T08:05:51;7.36;88.87
68912;SHT31;55953;51.650;-0.522;2022-11-20T08:08:19;7.33;88.80
68912;SHT31;55953;51.650;-0.522;2022-11-20T08:10:48;7.33;89.05
68912;SHT31;55953;51.650;-0.522;2022-11-20T08:13:16;7.29;89.11
68912;SHT31;55953;51.650;-0.522;2022-11-20T08:16:03;7.29;89.17
68912;SHT31;55953;51.650;-0.522;2022-11-20T08:18:31;7.36;89.27
68912;SHT31;55953;51.650;-0.522;2022-11-20T08:21:02;7.40;89.04
68912;SHT31;55953;51.650;-0.522;2022-11-20T08:23:32;7.41;88.99
68912;SHT31;55953;51.650;-0.522;2022-11-20T08:25:59;7.42;89.01
68912;SHT31;55953;51.650;-0.522;2022-11-20T08:28:27;7.43;89.04
68912;SHT31;55953;51.650;-0.522;2022-11-20T08:30:59;7.48;88.95
68912;SHT31;55953;51.650;-0.522;2022-11-20T08:33:28;7.52;89.00
68912;SHT31;55953;51.650;-0.522;2022-11-20T08:36:00;7.60;88.84
68912;SHT31;55953;51.650;-0.522;2022-11-20T08:38:30;7.62;88.71
68912;SHT31;55953;51.650;-0.522;2022-11-20T08:40:59;7.66;88.63
68912;SHT31;55953;51.650;-0.522;2022-11-20T08:43:46;7.71;88.72
68912;SHT31;55953;51.650;-0.522;2022-11-20T08:46:14;7.74;88.67
68912;SHT31;55953;51.650;-0.522;2022-11-20T08:48:42;7.74;88.84
68912;SHT31;55953;51.650;-0.522;2022-11-20T08:51:11;7.80;88.87
68912;SHT31;55953;51.650;-0.522;2022-11-20T08:53:40;7.88;88.93
68912;SHT31;55953;51.650;-0.522;2022-11-20T08:56:08;7.97;88.87
68912;SHT31;55953;51.650;-0.522;2022-11-20T08:58:39;8.08;88.86
68912;SHT31;55953;51.650;-0.522;2022-11-20T09:01:28;8.18;88.74
68912;SHT31;55953;51.650;-0.522;2022-11-20T09:03:56;8.24;88.60
68912;SHT31;55953;51.650;-0.522;2022-11-20T09:06:25;8.26;88.58
68912;SHT31;55953;51.650;-0.522;2022-11-20T09:08:53;8.28;88.50
68912;SHT31;55953;51.650;-0.522;2022-11-20T09:11:22;8.26;88.45
68912;SHT31;55953;51.650;-0.522;2022-11-20T09:13:50;8.24;88.48
68912;SHT31;55953;51.650;-0.522;2022-11-20T09:16:18;8.22;88.42
68912;SHT31;55953;51.650;-0.522;2022-11-20T09:18:45;8.19;88.38
68912;SHT31;55953;51.650;-0.522;2022-11-20T09:21:13;8.15;88.37
68912;SHT31;55953;51.650;-0.522;2022-11-20T09:23:41;8.13;88.48
68912;SHT31;55953;51.650;-0.522;2022-11-20T09:26:12;8.13;88.44
68912;SHT31;55953;51.650;-0.522;2022-11-20T09:28:41;8.15;88.51
68912;SHT31;55953;51.650;-0.522;2022-11-20T09:31:14;8.19;88.43
68912;SHT31;55953;51.650;-0.522;2022-11-20T09:33:50;8.21;88.49
68912;SHT31;55953;51.650;-0.522;2022-11-20T09:36:18;8.23;88.45
68912;SHT31;55953;51.650;-0.522;2022-11-20T09:38:46;8.25;88.35
68912;SHT31;55953;51.650;-0.522;2022-11-20T09:42:02;8.28;88.26
68912;SHT31;55953;51.650;-0.522;2022-11-20T09:44:34;8.32;88.09
68912;SHT31;55953;51.650;-0.522;2022-11-20T09:50:46;8.38;88.20
68912;SHT31;55953;51.650;-0.522;2022-11-20T09:53:37;8.39;88.09
68912;SHT31;55953;51.650;-0.522;2022-11-20T09:56:12;8.44;87.95
68912;SHT31;55953;51.650;-0.522;2022-11-20T09:58:48;8.48;87.76
68912;SHT31;55953;51.650;-0.522;2022-11-20T10:01:22;8.53;87.61
68912;SHT31;55953;51.650;-0.522;2022-11-20T10:04:14;8.60;87.37
68912;SHT31;55953;51.650;-0.522;2022-11-20T10:09:55;8.78;87.11
68912;SHT31;55953;51.650;-0.522;2022-11-20T10:12:30;8.86;87.02
68912;SHT31;55953;51.650;-0.522;2022-11-20T10:15:26;8.94;86.56
68912;SHT31;55953;51.650;-0.522;2022-11-20T10:18:09;9.00;85.37
68912;SHT31;55953;51.650;-0.522;2022-11-20T10:24:19;9.07;85.48
68912;SHT31;55953;51.650;-0.522;2022-11-20T10:29:47;9.08;85.46
68912;SHT31;55953;51.650;-0.522;2022-11-20T10:32:30;9.10;85.41
68912;SHT31;55953;51.650;-0.522;2022-11-20T10:38:20;9.16;84.51
68912;SHT31;55953;51.650;-0.522;2022-11-20T10:40:57;9.22;84.53
68912;SHT31;55953;51.650;-0.522;2022-11-20T10:43:49;9.30;84.39
68912;SHT31;55953;51.650;-0.522;2022-11-20T10:46:33;9.35;83.91
68912;SHT31;55953;51.650;-0.522;2022-11-20T10:49:11;9.42;83.84
68912;SHT31;55953;51.650;-0.522;2022-11-20T10:51:50;9.48;83.81
68912;SHT31;55953;51.650;-0.522;2022-11-20T11:00:32;9.59;82.39
68912;SHT31;55953;51.650;-0.522;2022-11-20T11:03:00;9.66;82.62
68912;SHT31;55953;51.650;-0.522;2022-11-20T11:08:12;9.70;82.84
68912;SHT31;55953;51.650;-0.522;2022-11-20T11:13:25;9.76;81.99
68912;SHT31;55953;51.650;-0.522;2022-11-20T11:15:56;9.82;82.41
68912;SHT31;55953;51.650;-0.522;2022-11-20T11:18:26;9.85;81.81
68912;SHT31;55953;51.650;-0.522;2022-11-20T11:21:02;9.90;80.97
68912;SHT31;55953;51.650;-0.522;2022-11-20T11:23:33;9.95;80.63
68912;SHT31;55953;51.650;-0.522;2022-11-20T11:26:19;10.02;80.56
68912;SHT31;55953;51.650;-0.522;2022-11-20T11:28:54;10.06;80.72
68912;SHT31;55953;51.650;-0.522;2022-11-20T11:31:26;10.07;79.84
68912;SHT31;55953;51.650;-0.522;2022-11-20T11:34:07;10.12;79.92
68912;SHT31;55953;51.650;-0.522;2022-11-20T11:36:40;10.13;80.01
68912;SHT31;55953;51.650;-0.522;2022-11-20T11:39:11;10.12;79.48
68912;SHT31;55953;51.650;-0.522;2022-11-20T11:41:45;10.13;78.15
68912;SHT31;55953;51.650;-0.522;2022-11-20T11:44:19;10.12;78.67
68912;SHT31;55953;51.650;-0.522;2022-11-20T11:47:23;10.16;79.05
68912;SHT31;55953;51.650;-0.522;2022-11-20T11:55:48;10.16;78.04
68912;SHT31;55953;51.650;-0.522;2022-11-20T11:58:41;10.17;78.00
68912;SHT31;55953;51.650;-0.522;2022-11-20T12:03:59;10.19;77.48
68912;SHT31;55953;51.650;-0.522;2022-11-20T12:07:13;10.26;76.96
68912;SHT31;55953;51.650;-0.522;2022-11-20T12:10:28;10.31;76.67
68912;SHT31;55953;51.650;-0.522;2022-11-20T12:16:02;10.30;76.98
68912;SHT31;55953;51.650;-0.522;2022-11-20T12:18:31;10.32;76.33
68912;SHT31;55953;51.650;-0.522;2022-11-20T12:30:16;10.29;75.23
68912;SHT31;55953;51.650;-0.522;2022-11-20T12:35:44;10.33;75.90
68912;SHT31;55953;51.650;-0.522;2022-11-20T12:50:35;10.37;75.32
68912;SHT31;55953;51.650;-0.522;2022-11-20T12:56:24;10.37;74.32
68912;SHT31;55953;51.650;-0.522;2022-11-20T13:08:14;10.40;73.44
68912;SHT31;55953;51.650;-0.522;2022-11-20T13:11:09;10.43;73.68
68912;SHT31;55953;51.650;-0.522;2022-11-20T13:16:50;10.47;73.28
68912;SHT31;55953;51.650;-0.522;2022-11-20T13:19:32;10.48;73.81
68912;SHT31;55953;51.650;-0.522;2022-11-20T13:22:01;10.49;74.10
68912;SHT31;55953;51.650;-0.522;2022-11-20T13:24:29;10.50;73.23
68912;SHT31;55953;51.650;-0.522;2022-11-20T13:27:17;10.53;71.83
68912;SHT31;55953;51.650;-0.522;2022-11-20T13:30:00;10.62;72.52
68912;SHT31;55953;51.650;-0.522;2022-11-20T13:32:55;10.66;72.54
68912;SHT31;55953;51.650;-0.522;2022-11-20T13:36:03;10.74;72.40
68912;SHT31;55953;51.650;-0.522;2022-11-20T13:38:48;10.78;72.30
68912;SHT31;55953;51.650;-0.522;2022-11-20T13:46:41;10.78;71.47
68912;SHT31;55953;51.650;-0.522;2022-11-20T13:55:50;10.69;72.09
68912;SHT31;55953;51.650;-0.522;2022-11-20T13:58:40;10.65;72.34
68912;SHT31;55953;51.650;-0.522;2022-11-20T14:01:21;10.61;72.83
68912;SHT31;55953;51.650;-0.522;2022-11-20T14:03:52;10.57;72.53
68912;SHT31;55953;51.650;-0.522;2022-11-20T14:06:43;10.59;73.47
68912;SHT31;55953;51.650;-0.522;2022-11-20T14:09:27;10.63;73.42
68912;SHT31;55953;51.650;-0.522;2022-11-20T14:11:59;10.67;73.57
68912;SHT31;55953;51.650;-0.522;2022-11-20T14:14:29;10.73;74.07
68912;SHT31;55953;51.650;-0.522;2022-11-20T14:20:12;10.72;73.81
68912;SHT31;55953;51.650;-0.522;2022-11-20T14:22:52;10.68;74.03
68912;SHT31;55953;51.650;-0.522;2022-11-20T14:25:22;10.67;74.34
68912;SHT31;55953;51.650;-0.522;2022-11-20T14:27:58;10.68;73.80
68912;SHT31;55953;51.650;-0.522;2022-11-20T14:33:23;10.63;75.02
68912;SHT31;55953;51.650;-0.522;2022-11-20T14:35:55;10.56;74.64
68912;SHT31;55953;51.650;-0.522;2022-11-20T14:38:26;10.47;74.42
68912;SHT31;55953;51.650;-0.522;2022-11-20T14:41:06;10.41;74.43
68912;SHT31;55953;51.650;-0.522;2022-11-20T14:43:36;10.31;75.36
68912;SHT31;55953;51.650;-0.522;2022-11-20T14:46:05;10.16;76.79
68912;SHT31;55953;51.650;-0.522;2022-11-20T14:48:41;10.03;77.00
68912;SHT31;55953;51.650;-0.522;2022-11-20T14:51:25;9.99;77.19
68912;SHT31;55953;51.650;-0.522;2022-11-20T14:56:59;10.04;78.46
68912;SHT31;55953;51.650;-0.522;2022-11-20T14:59:30;10.05;78.31
68912;SHT31;55953;51.650;-0.522;2022-11-20T15:02:02;10.03;78.18
68912;SHT31;55953;51.650;-0.522;2022-11-20T15:07:28;9.90;77.92
68912;SHT31;55953;51.650;-0.522;2022-11-20T15:12:52;9.87;78.65
68912;SHT31;55953;51.650;-0.522;2022-11-20T15:15:25;9.86;78.62
68912;SHT31;55953;51.650;-0.522;2022-11-20T15:18:11;9.87;78.37
68912;SHT31;55953;51.650;-0.522;2022-11-20T15:20:45;9.86;78.87
68912;SHT31;55953;51.650;-0.522;2022-11-20T15:23:17;9.85;78.95
68912;SHT31;55953;51.650;-0.522;2022-11-20T15:25:46;9.85;78.81
68912;SHT31;55953;51.650;-0.522;2022-11-20T15:28:20;9.85;78.84
68912;SHT31;55953;51.650;-0.522;2022-11-20T15:31:00;9.83;78.52
68912;SHT31;55953;51.650;-0.522;2022-11-20T15:33:30;9.79;79.17
68912;SHT31;55953;51.650;-0.522;2022-11-20T15:35:59;9.71;78.91
68912;SHT31;55953;51.650;-0.522;2022-11-20T15:38:27;9.67;79.27
68912;SHT31;55953;51.650;-0.522;2022-11-20T15:40:55;9.63;79.53
68912;SHT31;55953;51.650;-0.522;2022-11-20T15:43:23;9.62;79.53
68912;SHT31;55953;51.650;-0.522;2022-11-20T15:45:53;9.60;79.15
68912;SHT31;55953;51.650;-0.522;2022-11-20T15:48:27;9.60;79.21
68912;SHT31;55953;51.650;-0.522;2022-11-20T15:51:14;9.57;79.13
68912;SHT31;55953;51.650;-0.522;2022-11-20T15:53:50;9.54;79.11
68912;SHT31;55953;51.650;-0.522;2022-11-20T15:56:17;9.53;78.86
68912;SHT31;55953;51.650;-0.522;2022-11-20T15:58:45;9.49;78.95
68912;SHT31;55953;51.650;-0.522;2022-11-20T16:01:13;9.42;79.08
68912;SHT31;55953;51.650;-0.522;2022-11-20T16:03:45;9.33;78.98
68912;SHT31;55953;51.650;-0.522;2022-11-20T16:06:14;9.29;78.95
68912;SHT31;55953;51.650;-0.522;2022-11-20T16:08:43;9.23;79.38
68912;SHT31;55953;51.650;-0.522;2022-11-20T16:11:12;9.17;79.48
68912;SHT31;55953;51.650;-0.522;2022-11-20T16:13:43;9.13;78.90
68912;SHT31;55953;51.650;-0.522;2022-11-20T16:16:30;9.10;78.95
68912;SHT31;55953;51.650;-0.522;2022-11-20T16:19:05;9.04;79.25
68912;SHT31;55953;51.650;-0.522;2022-11-20T16:21:32;8.97;79.41
68912;SHT31;55953;51.650;-0.522;2022-11-20T16:24:01;8.91;79.66
68912;SHT31;55953;51.650;-0.522;2022-11-20T16:26:32;8.86;79.89
68912;SHT31;55953;51.650;-0.522;2022-11-20T16:29:01;8.82;80.14
68912;SHT31;55953;51.650;-0.522;2022-11-20T16:31:32;8.84;80.08
68912;SHT31;55953;51.650;-0.522;2022-11-20T16:34:05;8.87;80.18
68912;SHT31;55953;51.650;-0.522;2022-11-20T16:36:39;8.89;80.23
68912;SHT31;55953;51.650;-0.522;2022-11-20T16:39:09;8.89;80.21
68912;SHT31;55953;51.650;-0.522;2022-11-20T16:41:37;8.88;80.36
68912;SHT31;55953;51.650;-0.522;2022-11-20T16:44:08;8.84;80.51
68912;SHT31;55953;51.650;-0.522;2022-11-20T16:46:37;8.78;80.57
68912;SHT31;55953;51.650;-0.522;2022-11-20T16:49:11;8.78;80.54
68912;SHT31;55953;51.650;-0.522;2022-11-20T16:51:40;8.75;80.17
68912;SHT31;55953;51.650;-0.522;2022-11-20T16:54:09;8.72;80.08
68912;SHT31;55953;51.650;-0.522;2022-11-20T16:56:44;8.65;80.24
68912;SHT31;55953;51.650;-0.522;2022-11-20T16:59:14;8.59;80.14
68912;SHT31;55953;51.650;-0.522;2022-11-20T17:01:42;8.55;80.13
68912;SHT31;55953;51.650;-0.522;2022-11-20T17:04:10;8.49;80.35
68912;SHT31;55953;51.650;-0.522;2022-11-20T17:06:40;8.42;80.49
68912;SHT31;55953;51.650;-0.522;2022-11-20T17:09:12;8.34;80.84
68912;SHT31;55953;51.650;-0.522;2022-11-20T17:11:41;8.26;80.95
68912;SHT31;55953;51.650;-0.522;2022-11-20T17:14:09;8.21;81.21
68912;SHT31;55953;51.650;-0.522;2022-11-20T17:16:38;8.17;81.49
68912;SHT31;55953;51.650;-0.522;2022-11-20T17:19:06;8.13;81.54
68912;SHT31;55953;51.650;-0.522;2022-11-20T17:21:35;8.10;81.59
68912;SHT31;55953;51.650;-0.522;2022-11-20T17:24:03;8.06;81.86
68912;SHT31;55953;51.650;-0.522;2022-11-20T17:26:34;8.05;81.90
68912;SHT31;55953;51.650;-0.522;2022-11-20T17:29:06;8.03;81.86
68912;SHT31;55953;51.650;-0.522;2022-11-20T17:31:38;7.98;82.07
68912;SHT31;55953;51.650;-0.522;2022-11-20T17:34:06;7.94;81.93
68912;SHT31;55953;51.650;-0.522;2022-11-20T17:36:38;7.92;81.86
68912;SHT31;55953;51.650;-0.522;2022-11-20T17:39:15;7.89;81.81
68912;SHT31;55953;51.650;-0.522;2022-11-20T17:41:44;7.85;81.95
68912;SHT31;55953;51.650;-0.522;2022-11-20T17:44:32;7.81;82.11
68912;SHT31;55953;51.650;-0.522;2022-11-20T17:47:00;7.81;82.06
68912;SHT31;55953;51.650;-0.522;2022-11-20T17:49:28;7.79;82.12
68912;SHT31;55953;51.650;-0.522;2022-11-20T17:51:55;7.75;82.30
68912;SHT31;55953;51.650;-0.522;2022-11-20T17:54:23;7.71;82.33